Tk Rotterdam — A8RG8 — position and weather

sailwx.info

Track history (hours):
 
Tides and Currents Weather Stations Pressure Air Temp Water Temp Dewpoint Dewpoint Depression Visibility Wind Speed Wind Dir Waves Ship Positions

Tk Rotterdam

Last reported at 2015-May-27 11:33 UTC. Time now 2015-May-27 11:48 UTC.
Position N 36°06' E 014°39'.

Length 130 m; draft 8.6 m.

Type: Cargo ship. MMSI: 636014098.

Date/timePositionNaut miles runAvg speedWind from/ knotsBaromVisibWave heightAir tempDewpointWater temp
2015-May-27 11:33N 36°06' E 014°39'1212.0
2015-May-27 10:33N 36°10' E 014°24'1212.0
2015-May-27 09:33N 36°13' E 014°10'1312.2
2015-May-27 08:29N 36°18' E 013°55'1212.6
2015-May-27 07:33N 36°23' E 013°42'  
2015-May-24 00:16N 35°59' W 005°13'1013.8
2015-May-23 23:33N 35°57' W 005°25'10611.8
2015-May-23 14:33N 36°12' W 007°35'1211.6
2015-May-23 13:33N 36°15' W 007°49'4611.6
2015-May-23 09:33N 36°27' W 008°44'1211.7
2015-May-23 08:33N 36°30' W 008°58'1711.9
2015-May-23 07:09N 36°35' W 009°18'711.6
2015-May-23 06:33N 36°40' W 009°24'4811.5
2015-May-23 02:26N 37°25' W 009°43'1011.7
2015-May-23 01:33N 37°35' W 009°46'1211.8
2015-May-23 00:32N 37°46' W 009°50'1212.1
2015-May-22 23:33N 37°58' W 009°53'1211.9
2015-May-22 22:33N 38°09' W 009°57'1212.0
2015-May-22 21:33N 38°21' W 009°60'1212.0
2015-May-22 20:33N 38°33' W 010°03'1212.1
2015-May-22 19:33N 38°45' W 010°05'1212.2
2015-May-22 18:33N 38°57' W 010°05'1211.8
2015-May-22 17:33N 39°09' W 010°06'1312.3
2015-May-22 16:31N 39°22' W 010°06'1212.3
2015-May-22 15:33N 39°33' W 010°06'1712.1
2015-May-22 14:09N 39°50' W 010°05'  
2015-May-19 16:18N 49°42' W 000°52'8 9.7
2015-May-19 15:25N 49°39' W 000°40'8 9.4
2015-May-19 14:33N 49°35' W 000°29'9 8.7
2015-May-19 13:33N 49°32' W 000°17'8 8.0
2015-May-19 12:33N 49°29' W 000°05'7 7.2
2015-May-19 11:33N 49°26' E 000°05'7 7.2
2015-May-19 10:33N 49°26' E 000°16'6 6.3
2015-May-19 09:32N 49°27' E 000°26'4 3.8
2015-May-19 08:22N 49°28' E 000°32'5 6.0
2015-May-19 07:33N 49°28' E 000°40'6 5.2
2015-May-19 06:24N 49°26' E 000°49'  
Track history (hours):
 
Tides and Currents Weather Stations Pressure Air Temp Water Temp Dewpoint Dewpoint Depression Visibility Wind Speed Wind Dir Waves Ship Positions

Tk Rotterdam

Last reported at 2015-May-27 11:33 UTC. Time now 2015-May-27 11:48 UTC.
Position N 36°06' E 014°39'.

Length 130 m; draft 8.6 m.

Type: Cargo ship. MMSI: 636014098.

Date/timePositionNaut miles runAvg speedWind from/ knotsBaromVisibWave heightAir tempDewpointWater temp
2015-May-27 11:33N 36°06' E 014°39'1212.0
2015-May-27 10:33N 36°10' E 014°24'1212.0
2015-May-27 09:33N 36°13' E 014°10'1312.2
2015-May-27 08:29N 36°18' E 013°55'1212.6
2015-May-27 07:33N 36°23' E 013°42'  
2015-May-24 00:16N 35°59' W 005°13'1013.8
2015-May-23 23:33N 35°57' W 005°25'10611.8
2015-May-23 14:33N 36°12' W 007°35'1211.6
2015-May-23 13:33N 36°15' W 007°49'4611.6
2015-May-23 09:33N 36°27' W 008°44'1211.7
2015-May-23 08:33N 36°30' W 008°58'1711.9
2015-May-23 07:09N 36°35' W 009°18'711.6
2015-May-23 06:33N 36°40' W 009°24'4811.5
2015-May-23 02:26N 37°25' W 009°43'1011.7
2015-May-23 01:33N 37°35' W 009°46'1211.8
2015-May-23 00:32N 37°46' W 009°50'1212.1
2015-May-22 23:33N 37°58' W 009°53'1211.9
2015-May-22 22:33N 38°09' W 009°57'1212.0
2015-May-22 21:33N 38°21' W 009°60'1212.0
2015-May-22 20:33N 38°33' W 010°03'1212.1
2015-May-22 19:33N 38°45' W 010°05'1212.2
2015-May-22 18:33N 38°57' W 010°05'1211.8
2015-May-22 17:33N 39°09' W 010°06'1312.3
2015-May-22 16:31N 39°22' W 010°06'1212.3
2015-May-22 15:33N 39°33' W 010°06'1712.1
2015-May-22 14:09N 39°50' W 010°05'  
2015-May-19 16:18N 49°42' W 000°52'8 9.7
2015-May-19 15:25N 49°39' W 000°40'8 9.4
2015-May-19 14:33N 49°35' W 000°29'9 8.7
2015-May-19 13:33N 49°32' W 000°17'8 8.0
2015-May-19 12:33N 49°29' W 000°05'7 7.2
2015-May-19 11:33N 49°26' E 000°05'7 7.2
2015-May-19 10:33N 49°26' E 000°16'6 6.3
2015-May-19 09:32N 49°27' E 000°26'4 3.8
2015-May-19 08:22N 49°28' E 000°32'5 6.0
2015-May-19 07:33N 49°28' E 000°40'6 5.2
2015-May-19 06:24N 49°26' E 000°49'  

Dump ship's entire track history